Saturday, August 18, 2018, 9:57 AM EDT
Back to Local

KMIV, Millville Municipal Airport

Location: Millville, NJ, United States Lat: 39.367
Local Time: 9:57 AM EDT (13:57 GMT) Lon: -75.083
Time Zone: US/Eastern Elev: 85 ft

Show me the last for .
Show Decoded

2018-08-18 08:54 METAR KMIV 181254Z AUTO 27007KT 10SM CLR 26/23 A2990 RMK AO2 SLP121 T02560233 =
2018-08-18 07:54 METAR KMIV 181154Z AUTO 26006KT 9SM CLR 25/24 A2989 RMK AO2 SLP121 60001 70001
                 T02500239 10267 20228 55006 =
2018-08-18 06:54 METAR KMIV 181054Z AUTO 00000KT 8SM CLR 23/22 A2989 RMK AO2 SLP121 T02280222 =
2018-08-18 05:54 METAR KMIV 180954Z AUTO 00000KT 9SM CLR 23/22 A2990 RMK AO2 SLP121 T02280222 =
2018-08-18 05:20 METAR KMIV 180920Z AUTO 00000KT 10SM SCT013 SCT026 23/22 A2991 RMK AO2 T02280222
                 =
2018-08-18 05:08 METAR KMIV 180908Z AUTO 00000KT 10SM BKN015 BKN090 23/23 A2991 RMK AO2 T02330228
                 =
2018-08-18 04:54 METAR KMIV 180854Z AUTO 00000KT 10SM SCT017 BKN090 23/23 A2991 RMK AO2 SLP127
                 60001 T02330228 58003 =
2018-08-18 03:54 METAR KMIV 180754Z AUTO 00000KT 10SM FEW028 23/22 A2991 RMK AO2 LTG DSNT E
                 RAB30E40 SLP127 P0001 T02330222 =
2018-08-18 03:47 METAR KMIV 180747Z AUTO 00000KT 10SM SCT030 24/23 A2991 RMK AO2 LTG DSNT E
                 RAB30E40 P0001 T02390228 =
2018-08-18 03:17 METAR KMIV 180717Z AUTO 27006KT 10SM BKN029 OVC035 24/22 A2992 RMK AO2 LTG DSNT
                 NE AND E T02440222 =
2018-08-18 03:10 METAR KMIV 180710Z AUTO 28005KT 10SM SCT026 BKN031 OVC039 25/22 A2992 RMK AO2
                 LTG DSNT NE AND E T02500222 =
2018-08-18 02:54 METAR KMIV 180654Z AUTO 29006KT 10SM VCTS BKN022 BKN027 BKN033 25/22 A2993 RMK
                 AO2 LTG DSNT N AND NE TSB36E54 SLP133 T02500222 =
2018-08-18 02:42 METAR KMIV 180642Z AUTO 32007KT 10SM TS FEW017 OVC022 26/22 A2994 RMK AO2 LTG
                 DSNT NE AND NW TSB36 T02560222 =
2018-08-18 02:35 METAR KMIV 180635Z AUTO 32006KT 10SM VCTS FEW011 BKN024 OVC029 26/22 A2994 RMK
                 AO2 LTG DSNT NE AND NW T02610222 =
2018-08-18 02:27 METAR KMIV 180627Z AUTO 32006KT 10SM FEW016 BKN024 BKN031 26/23 A2993 RMK AO2
                 LTG DSNT W-NE T02610228 =
2018-08-18 01:54 METAR KMIV 180554Z AUTO 22003KT 10SM SCT055 BKN085 26/25 A2992 RMK AO2 LTG DSNT
                 N AND NW SLP130 T02610250 10272 20261 58008 =
2018-08-18 00:54 METAR KMIV 180454Z AUTO 22003KT 10SM CLR 26/24 A2994 RMK AO2 SLP136 T02610244
                 403220211 =
2018-08-17 23:54 METAR KMIV 180354Z AUTO 00000KT 10SM CLR 27/24 A2994 RMK AO2 SLP137 T02670244 =
2018-08-17 22:54 METAR KMIV 180254Z AUTO VRB04KT 10SM CLR 27/24 A2995 RMK AO2 SLP138 T02720239
                 58006 =
2018-08-17 21:54 METAR KMIV 180154Z AUTO 17003KT 10SM CLR 27/24 A2996 RMK AO2 SLP141 T02720244 =
2018-08-17 20:54 METAR KMIV 180054Z AUTO 18004KT 10SM CLR 27/24 A2996 RMK AO2 SLP143 T02670239 =
2018-08-17 19:54 METAR KMIV 172354Z AUTO VRB03KT 10SM CLR 27/24 A2996 RMK AO2 SLP144 T02720239
                 10322 20272 55007 =
2018-08-17 18:54 METAR KMIV 172254Z AUTO VRB04KT 10SM CLR 28/24 A2996 RMK AO2 SLP143 T02830239 =
2018-08-17 17:54 METAR KMIV 172154Z AUTO 16005KT 10SM CLR 29/24 A2997 RMK AO2 SLP147 T02890239 =
2018-08-17 16:54 METAR KMIV 172054Z AUTO 18007G15KT 150V220 10SM CLR 30/24 A2998 RMK AO2 SLP151
                 T03000239 56016 =
2018-08-17 15:54 METAR KMIV 171954Z AUTO 18007KT 10SM CLR 31/23 A3000 RMK AO2 SLP155 T03060233 =
2018-08-17 14:54 METAR KMIV 171854Z AUTO 19008G14KT 150V220 10SM CLR 31/23 A3001 RMK AO2 SLP159
                 T03110233 =
2018-08-17 13:54 METAR KMIV 171754Z AUTO 10SM FEW038 32/23 A3003 RMK AO2 SLP167 T03170233 10322
                 20250 58015 =
2018-08-17 12:54 METAR KMIV 171654Z AUTO 24008KT 10SM CLR 31/23 A3005 RMK AO2 SLP175 T03110228 =
2018-08-17 11:54 METAR KMIV 171554Z AUTO VRB04KT 10SM CLR 31/23 A3007 RMK AO2 SLP179 T03060233 =
2018-08-17 10:54 METAR KMIV 171454Z AUTO VRB04KT 10SM CLR 30/24 A3008 RMK AO2 SLP182 T03000239
                 58005 =

Support USWX by starting your Amazon purchase here.